sensor_id;sensor_type;location;lat;lon;timestamp;P1;durP1;ratioP1;P2;durP2;ratioP2
29240;SDS011;16268;49.880;8.648;2023-04-10T00:02:12;9.05;;;6.35;;
29240;SDS011;16268;49.880;8.648;2023-04-10T00:04:37;9.10;;;6.10;;
29240;SDS011;16268;49.880;8.648;2023-04-10T00:07:03;9.82;;;6.13;;
29240;SDS011;16268;49.880;8.648;2023-04-10T00:09:29;9.07;;;6.57;;
29240;SDS011;16268;49.880;8.648;2023-04-10T00:11:55;30.58;;;16.30;;
29240;SDS011;16268;49.880;8.648;2023-04-10T00:14:21;38.67;;;19.70;;
29240;SDS011;16268;49.880;8.648;2023-04-10T00:16:48;29.02;;;16.35;;
29240;SDS011;16268;49.880;8.648;2023-04-10T00:19:15;9.63;;;6.70;;
29240;SDS011;16268;49.880;8.648;2023-04-10T00:21:41;11.90;;;7.43;;
29240;SDS011;16268;49.880;8.648;2023-04-10T00:24:07;9.35;;;6.43;;
29240;SDS011;16268;49.880;8.648;2023-04-10T00:26:34;9.57;;;6.63;;
29240;SDS011;16268;49.880;8.648;2023-04-10T00:29:00;9.27;;;6.15;;
29240;SDS011;16268;49.880;8.648;2023-04-10T00:31:26;10.05;;;6.63;;
29240;SDS011;16268;49.880;8.648;2023-04-10T00:33:52;10.70;;;6.75;;
29240;SDS011;16268;49.880;8.648;2023-04-10T00:36:17;9.73;;;6.90;;
29240;SDS011;16268;49.880;8.648;2023-04-10T00:38:43;11.25;;;6.68;;
29240;SDS011;16268;49.880;8.648;2023-04-10T00:41:09;10.18;;;6.30;;
29240;SDS011;16268;49.880;8.648;2023-04-10T00:43:35;10.68;;;7.05;;
29240;SDS011;16268;49.880;8.648;2023-04-10T00:46:01;12.65;;;7.50;;
29240;SDS011;16268;49.880;8.648;2023-04-10T00:48:30;10.25;;;7.32;;
29240;SDS011;16268;49.880;8.648;2023-04-10T00:50:56;10.18;;;7.20;;
29240;SDS011;16268;49.880;8.648;2023-04-10T00:53:22;11.52;;;7.38;;
29240;SDS011;16268;49.880;8.648;2023-04-10T00:58:18;11.32;;;7.00;;
29240;SDS011;16268;49.880;8.648;2023-04-10T01:00:43;10.07;;;6.82;;
29240;SDS011;16268;49.880;8.648;2023-04-10T01:03:10;10.30;;;7.03;;
29240;SDS011;16268;49.880;8.648;2023-04-10T01:05:41;11.25;;;7.25;;
29240;SDS011;16268;49.880;8.648;2023-04-10T01:08:23;11.27;;;7.45;;
29240;SDS011;16268;49.880;8.648;2023-04-10T01:11:03;9.95;;;6.68;;
29240;SDS011;16268;49.880;8.648;2023-04-10T01:13:40;10.73;;;7.18;;
29240;SDS011;16268;49.880;8.648;2023-04-10T01:18:56;11.15;;;7.10;;
29240;SDS011;16268;49.880;8.648;2023-04-10T01:21:37;10.20;;;6.97;;
29240;SDS011;16268;49.880;8.648;2023-04-10T01:26:40;12.10;;;7.13;;
29240;SDS011;16268;49.880;8.648;2023-04-10T01:29:17;10.93;;;7.20;;
29240;SDS011;16268;49.880;8.648;2023-04-10T01:34:50;11.95;;;7.40;;
29240;SDS011;16268;49.880;8.648;2023-04-10T01:37:19;11.02;;;7.00;;
29240;SDS011;16268;49.880;8.648;2023-04-10T01:39:58;10.52;;;6.80;;
29240;SDS011;16268;49.880;8.648;2023-04-10T01:42:27;11.23;;;6.93;;
29240;SDS011;16268;49.880;8.648;2023-04-10T01:44:56;10.48;;;7.43;;
29240;SDS011;16268;49.880;8.648;2023-04-10T01:47:23;9.77;;;7.22;;
29240;SDS011;16268;49.880;8.648;2023-04-10T01:49:51;9.95;;;6.82;;
29240;SDS011;16268;49.880;8.648;2023-04-10T01:52:18;10.32;;;7.03;;
29240;SDS011;16268;49.880;8.648;2023-04-10T01:54:45;11.75;;;7.10;;
29240;SDS011;16268;49.880;8.648;2023-04-10T01:57:15;11.55;;;7.38;;
29240;SDS011;16268;49.880;8.648;2023-04-10T01:59:41;10.82;;;7.38;;
29240;SDS011;16268;49.880;8.648;2023-04-10T02:02:07;10.95;;;7.13;;
29240;SDS011;16268;49.880;8.648;2023-04-10T02:04:35;10.25;;;7.47;;
29240;SDS011;16268;49.880;8.648;2023-04-10T02:07:13;11.02;;;7.50;;
29240;SDS011;16268;49.880;8.648;2023-04-10T02:09:48;12.27;;;8.07;;
29240;SDS011;16268;49.880;8.648;2023-04-10T02:12:21;11.00;;;7.97;;
29240;SDS011;16268;49.880;8.648;2023-04-10T02:14:52;13.05;;;8.27;;
29240;SDS011;16268;49.880;8.648;2023-04-10T02:17:22;10.68;;;7.50;;
29240;SDS011;16268;49.880;8.648;2023-04-10T02:19:52;10.98;;;7.65;;
29240;SDS011;16268;49.880;8.648;2023-04-10T02:22:22;9.98;;;7.22;;
29240;SDS011;16268;49.880;8.648;2023-04-10T02:24:49;11.15;;;7.60;;
29240;SDS011;16268;49.880;8.648;2023-04-10T02:27:25;10.90;;;7.82;;
29240;SDS011;16268;49.880;8.648;2023-04-10T02:29:52;10.75;;;7.50;;
29240;SDS011;16268;49.880;8.648;2023-04-10T02:32:18;11.10;;;7.63;;
29240;SDS011;16268;49.880;8.648;2023-04-10T02:34:44;11.00;;;7.50;;
29240;SDS011;16268;49.880;8.648;2023-04-10T02:37:09;11.88;;;7.70;;
29240;SDS011;16268;49.880;8.648;2023-04-10T02:39:35;10.10;;;7.00;;
29240;SDS011;16268;49.880;8.648;2023-04-10T02:42:01;13.05;;;7.60;;
29240;SDS011;16268;49.880;8.648;2023-04-10T02:44:27;11.15;;;7.47;;
29240;SDS011;16268;49.880;8.648;2023-04-10T02:46:52;11.38;;;7.57;;
29240;SDS011;16268;49.880;8.648;2023-04-10T02:49:18;12.63;;;8.40;;
29240;SDS011;16268;49.880;8.648;2023-04-10T02:51:43;12.02;;;8.07;;
29240;SDS011;16268;49.880;8.648;2023-04-10T02:54:09;12.75;;;8.20;;
29240;SDS011;16268;49.880;8.648;2023-04-10T02:56:35;11.82;;;8.32;;
29240;SDS011;16268;49.880;8.648;2023-04-10T02:59:00;13.48;;;9.00;;
29240;SDS011;16268;49.880;8.648;2023-04-10T03:01:26;13.05;;;8.68;;
29240;SDS011;16268;49.880;8.648;2023-04-10T03:03:52;13.00;;;9.48;;
29240;SDS011;16268;49.880;8.648;2023-04-10T03:06:18;12.27;;;8.80;;
29240;SDS011;16268;49.880;8.648;2023-04-10T03:08:43;12.63;;;9.18;;
29240;SDS011;16268;49.880;8.648;2023-04-10T03:11:09;14.23;;;9.60;;
29240;SDS011;16268;49.880;8.648;2023-04-10T03:13:34;13.80;;;9.43;;
29240;SDS011;16268;49.880;8.648;2023-04-10T03:16:00;14.35;;;9.35;;
29240;SDS011;16268;49.880;8.648;2023-04-10T03:18:26;13.05;;;9.02;;
29240;SDS011;16268;49.880;8.648;2023-04-10T03:20:52;13.40;;;9.13;;
29240;SDS011;16268;49.880;8.648;2023-04-10T03:23:17;12.80;;;8.75;;
29240;SDS011;16268;49.880;8.648;2023-04-10T03:25:43;13.73;;;9.07;;
29240;SDS011;16268;49.880;8.648;2023-04-10T03:28:09;12.55;;;9.10;;
29240;SDS011;16268;49.880;8.648;2023-04-10T03:30:35;13.80;;;9.73;;
29240;SDS011;16268;49.880;8.648;2023-04-10T03:33:01;13.15;;;8.98;;
29240;SDS011;16268;49.880;8.648;2023-04-10T03:35:27;13.02;;;9.13;;
29240;SDS011;16268;49.880;8.648;2023-04-10T03:37:52;12.88;;;8.77;;
29240;SDS011;16268;49.880;8.648;2023-04-10T03:40:18;13.00;;;8.65;;
29240;SDS011;16268;49.880;8.648;2023-04-10T03:42:44;12.20;;;8.48;;
29240;SDS011;16268;49.880;8.648;2023-04-10T03:45:09;12.35;;;8.68;;
29240;SDS011;16268;49.880;8.648;2023-04-10T03:47:36;12.45;;;8.43;;
29240;SDS011;16268;49.880;8.648;2023-04-10T03:50:01;15.07;;;9.23;;
29240;SDS011;16268;49.880;8.648;2023-04-10T03:52:27;11.77;;;8.35;;
29240;SDS011;16268;49.880;8.648;2023-04-10T03:54:53;13.13;;;9.20;;
29240;SDS011;16268;49.880;8.648;2023-04-10T03:57:19;14.48;;;9.18;;
29240;SDS011;16268;49.880;8.648;2023-04-10T03:59:45;14.82;;;9.43;;
29240;SDS011;16268;49.880;8.648;2023-04-10T04:02:13;12.15;;;8.75;;
29240;SDS011;16268;49.880;8.648;2023-04-10T04:04:39;13.68;;;9.00;;
29240;SDS011;16268;49.880;8.648;2023-04-10T04:07:05;13.50;;;9.35;;
29240;SDS011;16268;49.880;8.648;2023-04-10T04:09:30;14.70;;;9.68;;
29240;SDS011;16268;49.880;8.648;2023-04-10T04:11:56;13.07;;;9.45;;
29240;SDS011;16268;49.880;8.648;2023-04-10T04:14:22;12.85;;;9.43;;
29240;SDS011;16268;49.880;8.648;2023-04-10T04:16:48;14.95;;;9.55;;
29240;SDS011;16268;49.880;8.648;2023-04-10T04:19:14;15.00;;;9.48;;
29240;SDS011;16268;49.880;8.648;2023-04-10T04:21:39;15.57;;;9.82;;
29240;SDS011;16268;49.880;8.648;2023-04-10T04:24:05;13.48;;;9.55;;
29240;SDS011;16268;49.880;8.648;2023-04-10T04:26:30;14.13;;;9.48;;
29240;SDS011;16268;49.880;8.648;2023-04-10T04:28:56;14.70;;;9.75;;
29240;SDS011;16268;49.880;8.648;2023-04-10T04:31:22;15.35;;;10.05;;
29240;SDS011;16268;49.880;8.648;2023-04-10T04:33:49;14.25;;;9.23;;
29240;SDS011;16268;49.880;8.648;2023-04-10T04:36:14;14.30;;;10.20;;
29240;SDS011;16268;49.880;8.648;2023-04-10T04:38:40;14.95;;;9.52;;
29240;SDS011;16268;49.880;8.648;2023-04-10T04:41:06;16.27;;;9.82;;
29240;SDS011;16268;49.880;8.648;2023-04-10T04:43:32;14.10;;;9.45;;
29240;SDS011;16268;49.880;8.648;2023-04-10T04:45:57;14.77;;;9.95;;
29240;SDS011;16268;49.880;8.648;2023-04-10T04:48:23;13.98;;;9.63;;
29240;SDS011;16268;49.880;8.648;2023-04-10T04:50:49;15.70;;;9.90;;
29240;SDS011;16268;49.880;8.648;2023-04-10T04:53:15;13.50;;;9.20;;
29240;SDS011;16268;49.880;8.648;2023-04-10T04:55:40;14.25;;;9.48;;
29240;SDS011;16268;49.880;8.648;2023-04-10T04:58:06;15.35;;;9.98;;
29240;SDS011;16268;49.880;8.648;2023-04-10T05:00:31;15.32;;;10.20;;
29240;SDS011;16268;49.880;8.648;2023-04-10T05:02:57;15.23;;;10.10;;
29240;SDS011;16268;49.880;8.648;2023-04-10T05:05:22;13.75;;;9.85;;
29240;SDS011;16268;49.880;8.648;2023-04-10T05:07:48;13.70;;;9.93;;
29240;SDS011;16268;49.880;8.648;2023-04-10T05:10:13;14.15;;;9.70;;
29240;SDS011;16268;49.880;8.648;2023-04-10T05:12:39;15.07;;;10.13;;
29240;SDS011;16268;49.880;8.648;2023-04-10T05:15:06;14.50;;;9.30;;
29240;SDS011;16268;49.880;8.648;2023-04-10T05:17:31;14.70;;;9.75;;
29240;SDS011;16268;49.880;8.648;2023-04-10T05:19:57;14.00;;;9.85;;
29240;SDS011;16268;49.880;8.648;2023-04-10T05:22:22;14.63;;;9.88;;
29240;SDS011;16268;49.880;8.648;2023-04-10T05:24:48;13.38;;;9.98;;
29240;SDS011;16268;49.880;8.648;2023-04-10T05:27:13;14.68;;;9.82;;
29240;SDS011;16268;49.880;8.648;2023-04-10T05:29:39;15.20;;;9.80;;
29240;SDS011;16268;49.880;8.648;2023-04-10T05:32:05;14.98;;;9.80;;
29240;SDS011;16268;49.880;8.648;2023-04-10T05:34:30;15.65;;;10.10;;
29240;SDS011;16268;49.880;8.648;2023-04-10T05:36:56;13.23;;;9.23;;
29240;SDS011;16268;49.880;8.648;2023-04-10T05:39:21;13.43;;;9.23;;
29240;SDS011;16268;49.880;8.648;2023-04-10T05:41:47;13.55;;;9.45;;
29240;SDS011;16268;49.880;8.648;2023-04-10T05:44:12;14.98;;;10.32;;
29240;SDS011;16268;49.880;8.648;2023-04-10T05:46:38;13.52;;;9.50;;
29240;SDS011;16268;49.880;8.648;2023-04-10T05:49:03;14.63;;;9.70;;
29240;SDS011;16268;49.880;8.648;2023-04-10T05:51:29;13.68;;;9.43;;
29240;SDS011;16268;49.880;8.648;2023-04-10T05:53:54;13.00;;;9.30;;
29240;SDS011;16268;49.880;8.648;2023-04-10T05:56:20;15.95;;;9.63;;
29240;SDS011;16268;49.880;8.648;2023-04-10T05:58:45;13.93;;;9.70;;
29240;SDS011;16268;49.880;8.648;2023-04-10T06:01:11;14.32;;;9.45;;
29240;SDS011;16268;49.880;8.648;2023-04-10T06:03:37;13.60;;;9.05;;
29240;SDS011;16268;49.880;8.648;2023-04-10T06:06:03;12.65;;;9.02;;
29240;SDS011;16268;49.880;8.648;2023-04-10T06:08:29;12.52;;;9.20;;
29240;SDS011;16268;49.880;8.648;2023-04-10T06:10:55;12.88;;;9.10;;
29240;SDS011;16268;49.880;8.648;2023-04-10T06:13:21;12.23;;;8.85;;
29240;SDS011;16268;49.880;8.648;2023-04-10T06:15:46;12.73;;;9.00;;
29240;SDS011;16268;49.880;8.648;2023-04-10T06:18:12;12.68;;;8.88;;
29240;SDS011;16268;49.880;8.648;2023-04-10T06:20:37;11.63;;;8.50;;
29240;SDS011;16268;49.880;8.648;2023-04-10T06:23:03;12.70;;;8.70;;
29240;SDS011;16268;49.880;8.648;2023-04-10T06:25:29;11.98;;;9.02;;
29240;SDS011;16268;49.880;8.648;2023-04-10T06:27:55;13.05;;;8.20;;
29240;SDS011;16268;49.880;8.648;2023-04-10T06:30:21;10.50;;;7.95;;
29240;SDS011;16268;49.880;8.648;2023-04-10T06:32:46;11.30;;;8.60;;
29240;SDS011;16268;49.880;8.648;2023-04-10T06:35:12;11.57;;;7.70;;
29240;SDS011;16268;49.880;8.648;2023-04-10T06:37:37;10.90;;;7.82;;
29240;SDS011;16268;49.880;8.648;2023-04-10T06:40:07;11.88;;;8.13;;
29240;SDS011;16268;49.880;8.648;2023-04-10T06:42:34;9.95;;;7.55;;
29240;SDS011;16268;49.880;8.648;2023-04-10T06:45:00;10.27;;;7.82;;
29240;SDS011;16268;49.880;8.648;2023-04-10T06:47:26;10.02;;;7.38;;
29240;SDS011;16268;49.880;8.648;2023-04-10T06:49:52;11.35;;;7.68;;
29240;SDS011;16268;49.880;8.648;2023-04-10T06:52:17;10.30;;;7.32;;
29240;SDS011;16268;49.880;8.648;2023-04-10T06:54:43;11.38;;;7.63;;
29240;SDS011;16268;49.880;8.648;2023-04-10T06:57:09;10.05;;;7.47;;
29240;SDS011;16268;49.880;8.648;2023-04-10T06:59:34;11.43;;;7.95;;
29240;SDS011;16268;49.880;8.648;2023-04-10T07:02:01;9.40;;;7.10;;
29240;SDS011;16268;49.880;8.648;2023-04-10T07:04:27;10.45;;;7.40;;
29240;SDS011;16268;49.880;8.648;2023-04-10T07:06:53;10.20;;;6.95;;
29240;SDS011;16268;49.880;8.648;2023-04-10T07:09:18;9.88;;;7.60;;
29240;SDS011;16268;49.880;8.648;2023-04-10T07:11:44;9.20;;;7.20;;
29240;SDS011;16268;49.880;8.648;2023-04-10T07:14:09;10.38;;;7.57;;
29240;SDS011;16268;49.880;8.648;2023-04-10T07:16:35;11.48;;;6.75;;
29240;SDS011;16268;49.880;8.648;2023-04-10T07:19:01;10.40;;;7.38;;
29240;SDS011;16268;49.880;8.648;2023-04-10T07:21:27;10.30;;;7.78;;
29240;SDS011;16268;49.880;8.648;2023-04-10T07:23:53;9.75;;;7.00;;
29240;SDS011;16268;49.880;8.648;2023-04-10T07:26:18;10.50;;;7.18;;
29240;SDS011;16268;49.880;8.648;2023-04-10T07:28:44;10.05;;;7.32;;
29240;SDS011;16268;49.880;8.648;2023-04-10T07:31:10;9.45;;;6.75;;
29240;SDS011;16268;49.880;8.648;2023-04-10T07:33:36;10.05;;;7.15;;
29240;SDS011;16268;49.880;8.648;2023-04-10T07:36:02;8.85;;;6.60;;
29240;SDS011;16268;49.880;8.648;2023-04-10T07:38:30;8.70;;;6.68;;
29240;SDS011;16268;49.880;8.648;2023-04-10T07:40:56;10.00;;;6.88;;
29240;SDS011;16268;49.880;8.648;2023-04-10T07:43:22;9.40;;;7.28;;
29240;SDS011;16268;49.880;8.648;2023-04-10T07:45:48;10.52;;;7.75;;
29240;SDS011;16268;49.880;8.648;2023-04-10T07:48:14;9.65;;;7.07;;
29240;SDS011;16268;49.880;8.648;2023-04-10T07:50:39;9.85;;;6.70;;
29240;SDS011;16268;49.880;8.648;2023-04-10T07:53:05;9.32;;;6.70;;
29240;SDS011;16268;49.880;8.648;2023-04-10T07:55:40;10.80;;;6.47;;
29240;SDS011;16268;49.880;8.648;2023-04-10T07:58:07;9.25;;;6.95;;
29240;SDS011;16268;49.880;8.648;2023-04-10T08:00:33;8.77;;;6.13;;
29240;SDS011;16268;49.880;8.648;2023-04-10T08:02:59;8.90;;;6.53;;
29240;SDS011;16268;49.880;8.648;2023-04-10T08:05:25;9.30;;;6.97;;
29240;SDS011;16268;49.880;8.648;2023-04-10T08:07:51;9.45;;;7.00;;
29240;SDS011;16268;49.880;8.648;2023-04-10T08:10:16;9.00;;;7.07;;
29240;SDS011;16268;49.880;8.648;2023-04-10T08:12:42;9.27;;;7.00;;
29240;SDS011;16268;49.880;8.648;2023-04-10T08:15:07;9.35;;;7.03;;
29240;SDS011;16268;49.880;8.648;2023-04-10T08:17:33;8.90;;;7.25;;
29240;SDS011;16268;49.880;8.648;2023-04-10T08:19:59;9.95;;;7.30;;
29240;SDS011;16268;49.880;8.648;2023-04-10T08:22:24;9.25;;;7.30;;
29240;SDS011;16268;49.880;8.648;2023-04-10T08:24:50;9.10;;;6.90;;
29240;SDS011;16268;49.880;8.648;2023-04-10T08:27:16;8.90;;;6.82;;
29240;SDS011;16268;49.880;8.648;2023-04-10T08:29:42;10.50;;;7.30;;
29240;SDS011;16268;49.880;8.648;2023-04-10T08:32:07;8.75;;;6.90;;
29240;SDS011;16268;49.880;8.648;2023-04-10T08:34:33;10.10;;;7.60;;
29240;SDS011;16268;49.880;8.648;2023-04-10T08:36:59;9.70;;;7.13;;
29240;SDS011;16268;49.880;8.648;2023-04-10T08:39:29;8.80;;;6.15;;
29240;SDS011;16268;49.880;8.648;2023-04-10T08:41:55;9.30;;;6.65;;
29240;SDS011;16268;49.880;8.648;2023-04-10T08:44:21;9.43;;;7.00;;
29240;SDS011;16268;49.880;8.648;2023-04-10T08:46:46;8.07;;;6.20;;
29240;SDS011;16268;49.880;8.648;2023-04-10T08:49:21;8.27;;;6.05;;
29240;SDS011;16268;49.880;8.648;2023-04-10T08:51:56;7.45;;;5.60;;
29240;SDS011;16268;49.880;8.648;2023-04-10T08:54:32;7.93;;;5.28;;
29240;SDS011;16268;49.880;8.648;2023-04-10T08:56:59;7.32;;;5.47;;
29240;SDS011;16268;49.880;8.648;2023-04-10T08:59:28;7.35;;;5.25;;
29240;SDS011;16268;49.880;8.648;2023-04-10T09:04:21;6.25;;;4.43;;
29240;SDS011;16268;49.880;8.648;2023-04-10T09:06:48;6.85;;;4.90;;
29240;SDS011;16268;49.880;8.648;2023-04-10T09:09:13;5.97;;;4.20;;
29240;SDS011;16268;49.880;8.648;2023-04-10T09:14:27;6.65;;;4.60;;
29240;SDS011;16268;49.880;8.648;2023-04-10T09:19:44;6.82;;;4.70;;
29240;SDS011;16268;49.880;8.648;2023-04-10T09:22:29;5.93;;;4.07;;
29240;SDS011;16268;49.880;8.648;2023-04-10T09:24:56;6.78;;;3.72;;
29240;SDS011;16268;49.880;8.648;2023-04-10T09:27:30;6.18;;;3.70;;
29240;SDS011;16268;49.880;8.648;2023-04-10T09:29:59;4.55;;;3.28;;
29240;SDS011;16268;49.880;8.648;2023-04-10T09:32:38;4.72;;;3.30;;
29240;SDS011;16268;49.880;8.648;2023-04-10T09:35:04;4.68;;;2.88;;
29240;SDS011;16268;49.880;8.648;2023-04-10T09:37:31;4.55;;;3.00;;
29240;SDS011;16268;49.880;8.648;2023-04-10T09:39:57;5.43;;;3.03;;
29240;SDS011;16268;49.880;8.648;2023-04-10T09:42:29;4.55;;;2.92;;
29240;SDS011;16268;49.880;8.648;2023-04-10T09:44:56;4.43;;;3.13;;
29240;SDS011;16268;49.880;8.648;2023-04-10T09:47:22;4.40;;;2.58;;
29240;SDS011;16268;49.880;8.648;2023-04-10T09:49:54;4.55;;;2.70;;
29240;SDS011;16268;49.880;8.648;2023-04-10T09:52:25;4.65;;;2.40;;
29240;SDS011;16268;49.880;8.648;2023-04-10T09:54:53;3.63;;;2.13;;
29240;SDS011;16268;49.880;8.648;2023-04-10T09:57:23;3.42;;;2.22;;
29240;SDS011;16268;49.880;8.648;2023-04-10T09:59:52;3.10;;;1.95;;
29240;SDS011;16268;49.880;8.648;2023-04-10T10:02:19;3.28;;;2.03;;
29240;SDS011;16268;49.880;8.648;2023-04-10T10:04:46;3.53;;;2.00;;
29240;SDS011;16268;49.880;8.648;2023-04-10T10:07:13;3.00;;;1.73;;
29240;SDS011;16268;49.880;8.648;2023-04-10T10:09:40;3.28;;;1.88;;
29240;SDS011;16268;49.880;8.648;2023-04-10T10:12:09;3.72;;;2.13;;
29240;SDS011;16268;49.880;8.648;2023-04-10T10:14:41;3.70;;;2.15;;
29240;SDS011;16268;49.880;8.648;2023-04-10T10:17:16;3.50;;;1.98;;
29240;SDS011;16268;49.880;8.648;2023-04-10T10:19:48;3.50;;;1.80;;
29240;SDS011;16268;49.880;8.648;2023-04-10T10:22:22;2.70;;;1.60;;
29240;SDS011;16268;49.880;8.648;2023-04-10T10:24:50;3.53;;;1.90;;
29240;SDS011;16268;49.880;8.648;2023-04-10T10:27:20;2.85;;;1.52;;
29240;SDS011;16268;49.880;8.648;2023-04-10T10:29:48;2.80;;;1.52;;
29240;SDS011;16268;49.880;8.648;2023-04-10T10:32:20;3.40;;;1.70;;
29240;SDS011;16268;49.880;8.648;2023-04-10T10:34:49;3.17;;;1.73;;
29240;SDS011;16268;49.880;8.648;2023-04-10T10:37:17;4.53;;;1.73;;
29240;SDS011;16268;49.880;8.648;2023-04-10T10:39:55;2.50;;;1.50;;
29240;SDS011;16268;49.880;8.648;2023-04-10T10:45:40;3.20;;;1.80;;
29240;SDS011;16268;49.880;8.648;2023-04-10T10:58:47;2.55;;;1.40;;
29240;SDS011;16268;49.880;8.648;2023-04-10T11:01:14;2.45;;;1.30;;
29240;SDS011;16268;49.880;8.648;2023-04-10T11:03:40;3.33;;;1.88;;
29240;SDS011;16268;49.880;8.648;2023-04-10T11:06:09;3.47;;;1.70;;
29240;SDS011;16268;49.880;8.648;2023-04-10T11:11:13;3.05;;;1.50;;
29240;SDS011;16268;49.880;8.648;2023-04-10T11:14:10;3.08;;;1.50;;
29240;SDS011;16268;49.880;8.648;2023-04-10T11:21:26;3.28;;;1.60;;
29240;SDS011;16268;49.880;8.648;2023-04-10T11:31:41;2.55;;;1.40;;
29240;SDS011;16268;49.880;8.648;2023-04-10T11:34:08;3.00;;;1.58;;
29240;SDS011;16268;49.880;8.648;2023-04-10T11:36:37;3.35;;;1.77;;
29240;SDS011;16268;49.880;8.648;2023-04-10T11:39:04;3.13;;;1.70;;
29240;SDS011;16268;49.880;8.648;2023-04-10T11:44:02;3.50;;;1.75;;
29240;SDS011;16268;49.880;8.648;2023-04-10T11:46:29;3.78;;;1.90;;
29240;SDS011;16268;49.880;8.648;2023-04-10T11:48:59;3.47;;;1.83;;
29240;SDS011;16268;49.880;8.648;2023-04-10T11:51:27;3.53;;;1.80;;
29240;SDS011;16268;49.880;8.648;2023-04-10T11:56:41;3.50;;;1.83;;
29240;SDS011;16268;49.880;8.648;2023-04-10T11:59:21;3.22;;;1.80;;
29240;SDS011;16268;49.880;8.648;2023-04-10T12:01:47;4.60;;;2.20;;
29240;SDS011;16268;49.880;8.648;2023-04-10T12:04:15;4.28;;;2.28;;
29240;SDS011;16268;49.880;8.648;2023-04-10T12:06:45;3.83;;;2.00;;
29240;SDS011;16268;49.880;8.648;2023-04-10T12:09:12;3.58;;;1.92;;
29240;SDS011;16268;49.880;8.648;2023-04-10T12:11:46;3.97;;;2.10;;
29240;SDS011;16268;49.880;8.648;2023-04-10T12:14:15;3.13;;;1.63;;
29240;SDS011;16268;49.880;8.648;2023-04-10T12:16:41;2.88;;;1.60;;
29240;SDS011;16268;49.880;8.648;2023-04-10T12:19:09;3.30;;;1.70;;
29240;SDS011;16268;49.880;8.648;2023-04-10T12:21:35;3.90;;;2.10;;
29240;SDS011;16268;49.880;8.648;2023-04-10T12:24:02;3.17;;;1.80;;
29240;SDS011;16268;49.880;8.648;2023-04-10T12:26:28;3.25;;;1.92;;
29240;SDS011;16268;49.880;8.648;2023-04-10T12:28:54;3.55;;;1.92;;
29240;SDS011;16268;49.880;8.648;2023-04-10T12:31:31;3.60;;;2.00;;
29240;SDS011;16268;49.880;8.648;2023-04-10T12:34:03;3.90;;;2.55;;
29240;SDS011;16268;49.880;8.648;2023-04-10T12:36:30;4.15;;;2.20;;
29240;SDS011;16268;49.880;8.648;2023-04-10T12:38:59;3.85;;;2.28;;
29240;SDS011;16268;49.880;8.648;2023-04-10T12:41:30;4.30;;;2.47;;
29240;SDS011;16268;49.880;8.648;2023-04-10T12:44:10;4.18;;;2.30;;
29240;SDS011;16268;49.880;8.648;2023-04-10T12:46:37;4.60;;;2.45;;
29240;SDS011;16268;49.880;8.648;2023-04-10T12:49:22;4.07;;;2.50;;
29240;SDS011;16268;49.880;8.648;2023-04-10T12:51:49;3.35;;;1.85;;
29240;SDS011;16268;49.880;8.648;2023-04-10T12:56:57;3.00;;;1.73;;
29240;SDS011;16268;49.880;8.648;2023-04-10T12:59:23;3.67;;;2.08;;
29240;SDS011;16268;49.880;8.648;2023-04-10T13:01:50;3.92;;;2.20;;
29240;SDS011;16268;49.880;8.648;2023-04-10T13:04:16;3.80;;;2.42;;
29240;SDS011;16268;49.880;8.648;2023-04-10T13:06:46;4.10;;;2.28;;
29240;SDS011;16268;49.880;8.648;2023-04-10T13:09:13;4.18;;;2.17;;
29240;SDS011;16268;49.880;8.648;2023-04-10T13:11:40;4.05;;;2.40;;
29240;SDS011;16268;49.880;8.648;2023-04-10T13:14:09;4.10;;;2.40;;
29240;SDS011;16268;49.880;8.648;2023-04-10T13:16:35;3.90;;;2.30;;
29240;SDS011;16268;49.880;8.648;2023-04-10T13:19:01;4.13;;;2.58;;
29240;SDS011;16268;49.880;8.648;2023-04-10T13:21:37;4.50;;;2.17;;
29240;SDS011;16268;49.880;8.648;2023-04-10T13:24:03;3.22;;;1.92;;
29240;SDS011;16268;49.880;8.648;2023-04-10T13:26:28;3.75;;;2.30;;
29240;SDS011;16268;49.880;8.648;2023-04-10T13:28:54;3.35;;;2.10;;
29240;SDS011;16268;49.880;8.648;2023-04-10T13:31:20;3.97;;;2.47;;
29240;SDS011;16268;49.880;8.648;2023-04-10T13:33:46;4.68;;;2.67;;
29240;SDS011;16268;49.880;8.648;2023-04-10T13:36:12;4.30;;;2.50;;
29240;SDS011;16268;49.880;8.648;2023-04-10T13:38:38;4.68;;;2.72;;
29240;SDS011;16268;49.880;8.648;2023-04-10T13:41:04;4.15;;;2.55;;
29240;SDS011;16268;49.880;8.648;2023-04-10T13:43:30;3.72;;;2.10;;
29240;SDS011;16268;49.880;8.648;2023-04-10T13:45:56;3.17;;;1.92;;
29240;SDS011;16268;49.880;8.648;2023-04-10T13:48:21;3.92;;;2.30;;
29240;SDS011;16268;49.880;8.648;2023-04-10T13:50:47;3.80;;;2.13;;
29240;SDS011;16268;49.880;8.648;2023-04-10T13:53:13;3.90;;;2.20;;
29240;SDS011;16268;49.880;8.648;2023-04-10T13:55:38;4.30;;;2.38;;
29240;SDS011;16268;49.880;8.648;2023-04-10T13:58:09;3.33;;;1.92;;
29240;SDS011;16268;49.880;8.648;2023-04-10T14:03:03;4.47;;;2.45;;
29240;SDS011;16268;49.880;8.648;2023-04-10T14:05:28;3.95;;;2.38;;
29240;SDS011;16268;49.880;8.648;2023-04-10T14:07:54;5.82;;;2.30;;
29240;SDS011;16268;49.880;8.648;2023-04-10T14:10:21;3.90;;;2.20;;
29240;SDS011;16268;49.880;8.648;2023-04-10T14:12:47;4.30;;;2.10;;
29240;SDS011;16268;49.880;8.648;2023-04-10T14:15:13;3.65;;;1.90;;
29240;SDS011;16268;49.880;8.648;2023-04-10T14:17:41;3.47;;;1.90;;
29240;SDS011;16268;49.880;8.648;2023-04-10T14:20:07;3.22;;;1.70;;
29240;SDS011;16268;49.880;8.648;2023-04-10T14:22:36;3.00;;;1.60;;
29240;SDS011;16268;49.880;8.648;2023-04-10T14:25:01;2.83;;;1.60;;
29240;SDS011;16268;49.880;8.648;2023-04-10T14:27:28;5.43;;;2.85;;
29240;SDS011;16268;49.880;8.648;2023-04-10T14:29:55;3.60;;;1.70;;
29240;SDS011;16268;49.880;8.648;2023-04-10T14:32:21;3.25;;;1.80;;
29240;SDS011;16268;49.880;8.648;2023-04-10T14:34:47;2.90;;;1.60;;
29240;SDS011;16268;49.880;8.648;2023-04-10T14:37:12;3.13;;;1.70;;
29240;SDS011;16268;49.880;8.648;2023-04-10T14:39:38;3.15;;;1.77;;
29240;SDS011;16268;49.880;8.648;2023-04-10T14:42:04;3.05;;;1.60;;
29240;SDS011;16268;49.880;8.648;2023-04-10T14:44:32;2.92;;;1.60;;
29240;SDS011;16268;49.880;8.648;2023-04-10T14:46:58;3.15;;;1.73;;
29240;SDS011;16268;49.880;8.648;2023-04-10T14:49:23;3.47;;;1.70;;
29240;SDS011;16268;49.880;8.648;2023-04-10T14:51:49;2.90;;;1.58;;
29240;SDS011;16268;49.880;8.648;2023-04-10T14:54:15;2.83;;;1.52;;
29240;SDS011;16268;49.880;8.648;2023-04-10T14:56:41;3.30;;;1.60;;
29240;SDS011;16268;49.880;8.648;2023-04-10T14:59:16;5.45;;;2.30;;
29240;SDS011;16268;49.880;8.648;2023-04-10T15:01:42;3.65;;;1.70;;
29240;SDS011;16268;49.880;8.648;2023-04-10T15:04:08;3.10;;;1.63;;
29240;SDS011;16268;49.880;8.648;2023-04-10T15:06:34;4.50;;;1.70;;
29240;SDS011;16268;49.880;8.648;2023-04-10T15:08:59;2.70;;;1.50;;
29240;SDS011;16268;49.880;8.648;2023-04-10T15:11:25;3.13;;;1.60;;
29240;SDS011;16268;49.880;8.648;2023-04-10T15:13:50;3.25;;;1.65;;
29240;SDS011;16268;49.880;8.648;2023-04-10T15:16:16;3.20;;;1.80;;
29240;SDS011;16268;49.880;8.648;2023-04-10T15:18:42;3.65;;;1.70;;
29240;SDS011;16268;49.880;8.648;2023-04-10T15:23:37;3.53;;;1.88;;
29240;SDS011;16268;49.880;8.648;2023-04-10T15:26:03;3.42;;;1.60;;
29240;SDS011;16268;49.880;8.648;2023-04-10T15:28:29;3.85;;;1.88;;
29240;SDS011;16268;49.880;8.648;2023-04-10T15:30:54;3.60;;;1.60;;
29240;SDS011;16268;49.880;8.648;2023-04-10T15:33:21;3.78;;;1.77;;
29240;SDS011;16268;49.880;8.648;2023-04-10T15:35:47;3.22;;;1.88;;
29240;SDS011;16268;49.880;8.648;2023-04-10T15:38:16;4.05;;;1.85;;
29240;SDS011;16268;49.880;8.648;2023-04-10T15:40:42;3.03;;;1.73;;
29240;SDS011;16268;49.880;8.648;2023-04-10T15:43:12;3.33;;;1.90;;